createdAt,value
2023-03-16T00:01:09.524Z,11.50
2023-03-16T00:03:36.499Z,11.60
2023-03-16T00:06:04.098Z,11.70
2023-03-16T00:08:30.899Z,11.80
2023-03-16T00:10:57.671Z,11.70
2023-03-16T00:13:25.668Z,11.60
2023-03-16T00:16:01.224Z,11.60
2023-03-16T00:18:29.189Z,12.70
2023-03-16T00:20:59.297Z,11.80
2023-03-16T00:23:28.831Z,11.90
2023-03-16T00:26:00.290Z,12.00
2023-03-16T00:28:27.942Z,12.10
2023-03-16T00:30:59.031Z,12.10
2023-03-16T00:33:26.562Z,12.10
2023-03-16T00:36:03.946Z,12.20
2023-03-16T00:38:34.839Z,12.20
2023-03-16T00:41:04.167Z,12.20
2023-03-16T00:43:41.749Z,12.10
2023-03-16T00:46:11.998Z,12.10
2023-03-16T00:48:42.608Z,12.20
2023-03-16T00:51:15.382Z,12.20
2023-03-16T00:53:43.792Z,12.00
2023-03-16T00:56:11.787Z,12.00
2023-03-16T00:58:40.221Z,12.20
2023-03-16T01:01:19.032Z,12.20
2023-03-16T01:03:46.713Z,12.20
2023-03-16T01:06:17.056Z,12.30
2023-03-16T01:08:44.579Z,12.50
2023-03-16T01:11:18.500Z,12.80
2023-03-16T01:13:49.097Z,12.70
2023-03-16T01:16:19.043Z,12.80
2023-03-16T01:18:46.805Z,12.90
2023-03-16T01:21:16.428Z,12.80
2023-03-16T01:23:44.184Z,12.60
2023-03-16T01:26:11.642Z,12.70
2023-03-16T01:28:38.999Z,12.80
2023-03-16T01:31:09.358Z,13.00
2023-03-16T01:33:37.460Z,12.90
2023-03-16T01:36:13.548Z,13.00
2023-03-16T01:38:40.709Z,13.10
2023-03-16T01:41:08.621Z,13.20
2023-03-16T01:43:37.578Z,13.10
2023-03-16T01:46:07.706Z,13.10
2023-03-16T01:48:49.878Z,13.10
2023-03-16T01:51:22.962Z,13.00
2023-03-16T01:53:53.641Z,12.90
2023-03-16T01:56:29.490Z,13.10
2023-03-16T01:58:59.910Z,13.20
2023-03-16T02:01:28.134Z,13.30
2023-03-16T02:04:02.767Z,13.20
2023-03-16T02:06:29.918Z,13.40
2023-03-16T02:08:57.775Z,14.00
2023-03-16T02:11:25.611Z,13.40
2023-03-16T02:13:52.804Z,13.40
2023-03-16T02:16:22.662Z,13.40
2023-03-16T02:18:51.416Z,13.60
2023-03-16T02:21:44.256Z,13.70
2023-03-16T02:24:11.190Z,13.70
2023-03-16T02:26:53.546Z,13.70
2023-03-16T02:29:29.758Z,13.70
2023-03-16T02:31:58.089Z,14.90
2023-03-16T02:34:26.311Z,13.90
2023-03-16T02:36:54.237Z,15.10
2023-03-16T02:39:21.004Z,14.20
2023-03-16T02:41:47.975Z,14.40
2023-03-16T02:44:25.084Z,14.40
2023-03-16T02:46:56.101Z,14.60
2023-03-16T02:49:29.821Z,15.00
2023-03-16T02:51:57.532Z,15.00
2023-03-16T02:54:24.777Z,15.10
2023-03-16T02:56:51.663Z,15.00
2023-03-16T02:59:18.410Z,15.00
2023-03-16T03:01:45.111Z,15.00
2023-03-16T03:04:11.957Z,15.10
2023-03-16T03:06:38.724Z,15.00
2023-03-16T03:09:07.508Z,15.00
2023-03-16T03:11:34.381Z,14.90
2023-03-16T03:14:01.129Z,15.30
2023-03-16T03:16:27.882Z,15.00
2023-03-16T03:18:54.681Z,15.00
2023-03-16T03:21:21.787Z,15.00
2023-03-16T03:23:48.566Z,15.00
2023-03-16T03:26:16.545Z,14.90
2023-03-16T03:28:44.612Z,14.90
2023-03-16T03:31:20.675Z,14.90
2023-03-16T03:33:47.688Z,14.90
2023-03-16T03:36:14.603Z,15.00
2023-03-16T03:38:41.491Z,15.00
2023-03-16T03:41:08.535Z,14.90
2023-03-16T03:43:35.531Z,15.00
2023-03-16T03:46:03.843Z,14.90
2023-03-16T03:48:30.740Z,14.90
2023-03-16T03:50:57.714Z,14.90
2023-03-16T03:53:24.675Z,14.90
2023-03-16T03:55:51.462Z,15.00
2023-03-16T03:58:18.300Z,15.00
2023-03-16T04:00:45.090Z,15.00
2023-03-16T04:03:11.896Z,14.90
2023-03-16T04:05:38.889Z,14.90
2023-03-16T04:08:05.977Z,15.00
2023-03-16T04:10:32.726Z,14.90
2023-03-16T04:13:00.379Z,14.90
2023-03-16T04:15:27.219Z,14.90
2023-03-16T04:17:54.040Z,14.90
2023-03-16T04:20:23.173Z,14.90
2023-03-16T04:22:50.182Z,14.90
2023-03-16T04:25:18.262Z,14.90
2023-03-16T04:27:46.737Z,14.90
2023-03-16T04:30:14.801Z,15.20
2023-03-16T04:32:41.754Z,15.40
2023-03-16T04:35:09.668Z,15.50
2023-03-16T04:37:36.884Z,15.50
2023-03-16T04:40:15.721Z,15.60
2023-03-16T04:42:46.608Z,15.80
2023-03-16T04:45:14.585Z,15.50
2023-03-16T04:47:41.704Z,15.60
2023-03-16T04:50:09.362Z,15.60
2023-03-16T04:52:36.397Z,15.90
2023-03-16T04:55:03.318Z,15.80
2023-03-16T04:57:30.590Z,15.80
2023-03-16T04:59:57.492Z,15.80
2023-03-16T05:02:24.491Z,15.90
2023-03-16T05:04:51.300Z,16.00
2023-03-16T05:07:18.125Z,16.20
2023-03-16T05:09:44.981Z,16.20
2023-03-16T05:12:11.856Z,16.20
2023-03-16T05:14:39.726Z,16.60
2023-03-16T05:17:06.658Z,16.30
2023-03-16T05:19:33.755Z,16.30
2023-03-16T05:22:00.660Z,16.50
2023-03-16T05:24:27.411Z,16.30
2023-03-16T05:26:54.368Z,16.30
2023-03-16T05:29:39.939Z,16.40
2023-03-16T05:32:27.604Z,16.40
2023-03-16T05:35:14.744Z,16.40
2023-03-16T05:37:42.798Z,16.30
2023-03-16T05:40:17.870Z,16.40
2023-03-16T05:42:50.032Z,16.40
2023-03-16T05:45:17.702Z,16.40
2023-03-16T05:47:44.509Z,16.60
2023-03-16T05:50:13.025Z,16.70
2023-03-16T05:52:40.810Z,16.70
2023-03-16T05:55:09.450Z,20.20
2023-03-16T05:57:36.538Z,16.80
2023-03-16T06:00:14.662Z,17.00
2023-03-16T06:02:47.653Z,17.00
2023-03-16T06:05:15.011Z,17.20
2023-03-16T06:07:42.128Z,17.30
2023-03-16T06:10:09.790Z,17.40
2023-03-16T06:12:37.092Z,17.40
2023-03-16T06:15:07.852Z,17.50
2023-03-16T06:17:36.491Z,17.60
2023-03-16T06:20:10.374Z,17.90
2023-03-16T06:22:41.769Z,18.90
2023-03-16T06:25:10.258Z,17.70
2023-03-16T06:27:37.766Z,18.00
2023-03-16T06:30:07.089Z,18.20
2023-03-16T06:32:34.127Z,18.50
2023-03-16T06:35:02.294Z,18.60
2023-03-16T06:37:30.104Z,18.80
2023-03-16T06:39:56.931Z,18.90
2023-03-16T06:42:24.922Z,19.30
2023-03-16T06:44:52.734Z,19.50
2023-03-16T06:47:20.179Z,19.80
2023-03-16T06:49:47.238Z,20.20
2023-03-16T06:52:14.836Z,20.90
2023-03-16T06:54:41.806Z,22.80
2023-03-16T06:57:09.026Z,24.00
2023-03-16T06:59:36.113Z,25.90
2023-03-16T07:02:03.015Z,27.30
2023-03-16T07:04:29.856Z,27.40
2023-03-16T07:06:56.611Z,28.40
2023-03-16T07:09:23.571Z,29.00
2023-03-16T07:11:51.419Z,28.60
2023-03-16T07:14:19.888Z,28.20
2023-03-16T07:16:46.746Z,27.00
2023-03-16T07:19:13.628Z,25.20
2023-03-16T07:21:41.943Z,24.30
2023-03-16T07:24:10.065Z,22.30
2023-03-16T07:26:37.262Z,20.10
2023-03-16T07:29:07.305Z,19.70
2023-03-16T07:31:34.947Z,18.60
2023-03-16T07:34:04.055Z,16.20
2023-03-16T07:36:31.413Z,14.40
2023-03-16T07:38:58.881Z,12.20
2023-03-16T07:41:26.162Z,11.30
2023-03-16T07:43:53.474Z,9.40
2023-03-16T07:46:20.529Z,7.90
2023-03-16T07:48:47.380Z,7.00
2023-03-16T07:51:14.577Z,5.80
2023-03-16T07:53:41.687Z,4.50
2023-03-16T07:56:09.197Z,3.90
2023-03-16T07:58:36.131Z,2.70
2023-03-16T08:01:04.158Z,1.10
2023-03-16T08:03:31.956Z,1.00
2023-03-16T08:05:59.043Z,1.00
2023-03-16T08:08:25.974Z,1.00
2023-03-16T08:10:54.570Z,1.00
2023-03-16T08:13:22.487Z,1.00
2023-03-16T08:15:58.310Z,1.00
2023-03-16T08:18:26.532Z,1.00
2023-03-16T08:20:53.852Z,1.00
2023-03-16T08:23:21.258Z,1.00
2023-03-16T08:25:51.519Z,1.00
2023-03-16T08:28:21.520Z,1.00
2023-03-16T08:30:50.970Z,1.00
2023-03-16T08:33:21.895Z,1.00
2023-03-16T08:35:50.779Z,1.00
2023-03-16T08:38:19.145Z,1.00
2023-03-16T08:40:48.444Z,1.00
2023-03-16T08:43:17.217Z,1.00
2023-03-16T08:45:48.431Z,1.00
2023-03-16T08:48:15.590Z,1.00
2023-03-16T08:50:44.094Z,1.00
2023-03-16T08:53:13.622Z,1.00
2023-03-16T08:55:44.060Z,1.00
2023-03-16T08:58:12.342Z,1.00
2023-03-16T09:00:39.945Z,1.00
2023-03-16T09:03:07.067Z,1.00
2023-03-16T09:05:35.093Z,1.00
2023-03-16T09:08:03.904Z,1.00
2023-03-16T09:10:32.370Z,1.00
2023-03-16T09:12:59.368Z,1.00
2023-03-16T09:15:26.776Z,1.00
2023-03-16T09:17:54.415Z,1.00
2023-03-16T09:20:25.892Z,1.00
2023-03-16T09:22:54.557Z,1.00
2023-03-16T09:25:21.475Z,1.00
2023-03-16T09:27:48.427Z,1.00
2023-03-16T09:30:16.820Z,1.00
2023-03-16T09:32:43.912Z,1.00
2023-03-16T09:35:11.904Z,1.00
2023-03-16T09:37:44.863Z,1.00
2023-03-16T09:40:23.155Z,1.00
2023-03-16T09:43:00.617Z,1.00
2023-03-16T09:45:52.393Z,1.00
2023-03-16T09:48:21.015Z,1.00
2023-03-16T09:50:49.754Z,1.00
2023-03-16T09:53:27.710Z,1.00
2023-03-16T09:55:58.281Z,1.00
2023-03-16T09:58:25.269Z,1.00
2023-03-16T10:01:13.334Z,1.00
2023-03-16T10:04:23.019Z,1.00
2023-03-16T10:07:22.130Z,1.00
2023-03-16T10:09:57.672Z,1.00
2023-03-16T10:12:30.997Z,1.00
2023-03-16T10:15:15.029Z,1.00
2023-03-16T10:17:50.081Z,1.00
2023-03-16T10:20:23.662Z,1.00
2023-03-16T10:22:52.769Z,1.00
2023-03-16T10:25:35.856Z,1.00
2023-03-16T10:28:02.652Z,1.00
2023-03-16T10:30:35.226Z,1.00
2023-03-16T10:33:13.211Z,1.00
2023-03-16T10:36:12.473Z,1.00
2023-03-16T10:38:55.222Z,1.00
2023-03-16T10:41:27.305Z,1.00
2023-03-16T10:44:12.323Z,1.00
2023-03-16T10:46:49.284Z,1.00
2023-03-16T10:49:44.517Z,1.00
2023-03-16T10:52:29.726Z,1.00
2023-03-16T10:55:00.184Z,1.00
2023-03-16T10:57:31.571Z,1.00
2023-03-16T11:00:14.384Z,1.00
2023-03-16T11:02:41.435Z,1.00
2023-03-16T11:05:18.342Z,1.00
2023-03-16T11:07:50.034Z,1.00
2023-03-16T11:10:36.204Z,1.00
2023-03-16T11:13:17.620Z,1.00
2023-03-16T11:15:47.697Z,1.00
2023-03-16T11:18:25.022Z,1.00
2023-03-16T11:20:52.654Z,1.00
2023-03-16T11:23:25.466Z,1.00
2023-03-16T11:25:54.329Z,1.00
2023-03-16T11:28:36.437Z,1.00
2023-03-16T11:31:22.338Z,1.00
2023-03-16T11:33:49.542Z,1.00
2023-03-16T11:36:40.191Z,1.00
2023-03-16T11:39:24.248Z,1.00
2023-03-16T11:42:19.287Z,1.00
2023-03-16T11:45:05.568Z,1.00
2023-03-16T11:47:51.406Z,1.00
2023-03-16T11:50:28.536Z,1.00
2023-03-16T11:53:07.118Z,1.00
2023-03-16T11:55:57.011Z,1.00
2023-03-16T11:59:07.958Z,1.00
2023-03-16T12:02:02.364Z,1.00
2023-03-16T12:04:45.103Z,1.00
2023-03-16T12:07:42.874Z,1.00
2023-03-16T12:10:26.365Z,1.00
2023-03-16T12:13:02.379Z,1.00
2023-03-16T12:15:56.891Z,1.00
2023-03-16T12:18:44.313Z,1.00
2023-03-16T12:21:31.573Z,1.00
2023-03-16T12:24:09.109Z,1.00
2023-03-16T12:26:42.248Z,1.00
2023-03-16T12:29:42.808Z,1.00
2023-03-16T12:32:18.917Z,1.00
2023-03-16T12:34:57.443Z,1.00
2023-03-16T12:37:41.466Z,1.00
2023-03-16T12:40:36.400Z,1.00
2023-03-16T12:43:18.917Z,1.00
2023-03-16T12:46:07.504Z,1.00
2023-03-16T12:48:43.138Z,1.00
2023-03-16T12:51:10.755Z,1.00
2023-03-16T12:53:43.454Z,1.00
2023-03-16T12:56:13.160Z,1.00
2023-03-16T12:58:47.125Z,1.00
2023-03-16T13:01:16.984Z,1.00
2023-03-16T13:03:48.109Z,1.00
2023-03-16T13:06:21.580Z,1.00
2023-03-16T13:08:59.674Z,1.00
2023-03-16T13:11:28.010Z,1.00
2023-03-16T13:14:00.670Z,1.00
2023-03-16T13:16:31.664Z,1.00
2023-03-16T13:18:59.393Z,1.00
2023-03-16T13:21:47.026Z,1.00
2023-03-16T13:24:28.507Z,1.00
2023-03-16T13:27:21.204Z,1.00
2023-03-16T13:30:20.201Z,1.00
2023-03-16T13:32:48.002Z,1.00
2023-03-16T13:35:16.707Z,1.00
2023-03-16T13:37:44.877Z,1.00
2023-03-16T13:40:23.902Z,1.00
2023-03-16T13:42:53.111Z,1.00
2023-03-16T13:45:23.934Z,1.00
2023-03-16T13:47:51.135Z,1.00
2023-03-16T13:50:19.432Z,1.00
2023-03-16T13:53:14.530Z,1.00
2023-03-16T13:55:44.133Z,1.00
2023-03-16T13:58:35.505Z,1.00
2023-03-16T14:01:11.864Z,1.00
2023-03-16T14:03:42.123Z,1.00
2023-03-16T14:06:25.450Z,1.00
2023-03-16T14:08:56.272Z,1.00
2023-03-16T14:11:23.048Z,1.00
2023-03-16T14:13:55.324Z,1.00
2023-03-16T14:16:25.406Z,1.00
2023-03-16T14:19:03.268Z,1.00
2023-03-16T14:21:34.270Z,1.00
2023-03-16T14:24:04.913Z,1.00
2023-03-16T14:26:43.642Z,1.00
2023-03-16T14:29:31.342Z,1.00
2023-03-16T14:31:59.983Z,1.00
2023-03-16T14:34:39.615Z,1.00
2023-03-16T14:37:15.829Z,1.00
2023-03-16T14:39:43.087Z,1.00
2023-03-16T14:42:18.113Z,1.00
2023-03-16T14:44:45.071Z,1.00
2023-03-16T14:47:29.370Z,1.00
2023-03-16T14:50:00.999Z,1.00
2023-03-16T14:52:33.752Z,1.00
2023-03-16T14:55:03.672Z,1.00
2023-03-16T14:57:30.687Z,1.00
2023-03-16T14:59:57.607Z,1.00
2023-03-16T15:02:31.887Z,1.00
2023-03-16T15:05:02.024Z,1.00
2023-03-16T15:07:36.088Z,1.00
2023-03-16T15:10:15.369Z,1.00
2023-03-16T15:12:50.400Z,1.00
2023-03-16T15:15:20.493Z,1.00
2023-03-16T15:17:48.170Z,1.00
2023-03-16T15:20:23.314Z,1.00
2023-03-16T15:22:52.968Z,1.00
2023-03-16T15:25:36.898Z,1.00
2023-03-16T15:28:12.898Z,1.00
2023-03-16T15:30:40.904Z,1.00
2023-03-16T15:33:10.179Z,1.00
2023-03-16T15:35:37.495Z,1.00
2023-03-16T15:38:11.582Z,1.00
2023-03-16T15:40:41.038Z,1.00
2023-03-16T15:43:12.764Z,1.00
2023-03-16T15:45:40.086Z,1.00
2023-03-16T15:48:08.167Z,1.00
2023-03-16T15:50:39.221Z,1.00
2023-03-16T15:53:29.234Z,1.00
2023-03-16T15:56:02.990Z,1.00
2023-03-16T15:58:31.648Z,1.00
2023-03-16T16:01:00.159Z,1.00
2023-03-16T16:03:27.742Z,1.00
2023-03-16T16:05:55.539Z,1.00
2023-03-16T16:08:22.388Z,1.00
2023-03-16T16:10:50.590Z,1.00
2023-03-16T16:13:37.445Z,1.00
2023-03-16T16:16:04.978Z,1.00
2023-03-16T16:18:36.426Z,1.00
2023-03-16T16:21:05.501Z,1.00
2023-03-16T16:23:32.996Z,1.00
2023-03-16T16:26:07.814Z,1.00
2023-03-16T16:28:35.337Z,1.00
2023-03-16T16:31:02.243Z,1.00
2023-03-16T16:33:32.119Z,1.00
2023-03-16T16:36:01.708Z,1.00
2023-03-16T16:38:29.344Z,1.00
2023-03-16T16:40:59.343Z,1.00
2023-03-16T16:43:39.250Z,1.00
2023-03-16T16:46:12.885Z,1.00
2023-03-16T16:48:47.128Z,1.00
2023-03-16T16:51:21.555Z,1.00
2023-03-16T16:53:49.400Z,1.00
2023-03-16T16:56:18.548Z,1.00
2023-03-16T16:58:46.465Z,1.00
2023-03-16T17:01:29.696Z,1.00
2023-03-16T17:03:57.209Z,1.00
2023-03-16T17:06:24.241Z,1.00
2023-03-16T17:08:52.309Z,1.00
2023-03-16T17:11:29.115Z,1.00
2023-03-16T17:13:58.701Z,1.00
2023-03-16T17:16:28.636Z,1.00
2023-03-16T17:18:55.719Z,1.00
2023-03-16T17:21:25.212Z,1.00
2023-03-16T17:23:52.859Z,1.00
2023-03-16T17:26:30.387Z,1.00
2023-03-16T17:28:59.802Z,1.00
2023-03-16T17:31:31.053Z,1.00
2023-03-16T17:33:58.480Z,1.00
2023-03-16T17:36:25.421Z,1.00
2023-03-16T17:38:53.633Z,1.00
2023-03-16T17:41:26.597Z,1.00
2023-03-16T17:44:00.685Z,1.00
2023-03-16T17:46:30.254Z,1.00
2023-03-16T17:48:57.315Z,1.00
2023-03-16T17:51:26.116Z,1.00
2023-03-16T17:53:54.020Z,1.00
2023-03-16T17:56:26.367Z,1.00
2023-03-16T17:58:57.162Z,1.00
2023-03-16T18:01:30.406Z,1.00
2023-03-16T18:03:57.972Z,1.00
2023-03-16T18:06:26.324Z,1.00
2023-03-16T18:08:53.436Z,1.00
2023-03-16T18:11:25.469Z,1.00
2023-03-16T18:13:53.061Z,1.00
2023-03-16T18:16:28.033Z,1.00
2023-03-16T18:18:59.514Z,1.00
2023-03-16T18:21:28.309Z,1.00
2023-03-16T18:23:55.801Z,1.00
2023-03-16T18:26:24.548Z,1.00
2023-03-16T18:28:53.425Z,1.00
2023-03-16T18:31:27.276Z,1.00
2023-03-16T18:33:58.376Z,1.00
2023-03-16T18:36:32.449Z,1.00
2023-03-16T18:39:03.713Z,1.00
2023-03-16T18:41:33.615Z,1.00
2023-03-16T18:44:12.504Z,1.00
2023-03-16T18:46:39.338Z,1.00
2023-03-16T18:49:33.555Z,1.00
2023-03-16T18:52:00.818Z,1.00
2023-03-16T18:54:30.486Z,1.00
2023-03-16T18:56:58.927Z,1.00
2023-03-16T18:59:26.202Z,1.00
2023-03-16T19:01:53.538Z,1.00
2023-03-16T19:04:26.938Z,1.00
2023-03-16T19:06:56.029Z,1.00
2023-03-16T19:09:28.877Z,1.00
2023-03-16T19:11:55.807Z,1.00
2023-03-16T19:14:26.635Z,1.00
2023-03-16T19:16:54.813Z,1.00
2023-03-16T19:19:23.347Z,1.00
2023-03-16T19:22:01.046Z,1.00
2023-03-16T19:24:34.492Z,1.00
2023-03-16T19:27:01.997Z,1.00
2023-03-16T19:29:33.894Z,1.00
2023-03-16T19:32:01.664Z,1.00
2023-03-16T19:34:29.013Z,1.00
2023-03-16T19:36:56.238Z,1.00
2023-03-16T19:39:23.074Z,1.00
2023-03-16T19:41:56.424Z,1.00
2023-03-16T19:44:28.341Z,1.00
2023-03-16T19:46:55.652Z,1.00
2023-03-16T19:49:25.889Z,1.00
2023-03-16T19:51:54.492Z,1.00
2023-03-16T19:54:35.126Z,1.00
2023-03-16T19:57:12.304Z,1.00
2023-03-16T19:59:40.293Z,1.00
2023-03-16T20:02:37.561Z,1.00
2023-03-16T20:05:05.654Z,1.00
2023-03-16T20:07:37.836Z,1.00
2023-03-16T20:10:06.236Z,1.00
2023-03-16T20:12:33.539Z,1.00
2023-03-16T20:15:00.731Z,1.00
2023-03-16T20:17:29.845Z,1.00
2023-03-16T20:19:57.415Z,1.00
2023-03-16T20:22:27.249Z,1.00
2023-03-16T20:24:54.877Z,1.00
2023-03-16T20:27:24.175Z,1.00
2023-03-16T20:29:51.723Z,1.00
2023-03-16T20:32:25.454Z,1.00
2023-03-16T20:34:53.679Z,1.00
2023-03-16T20:37:28.980Z,1.00
2023-03-16T20:39:58.200Z,1.00
2023-03-16T20:42:31.713Z,1.00
2023-03-16T20:44:58.714Z,1.00
2023-03-16T20:47:26.678Z,1.00
2023-03-16T20:49:57.536Z,1.00
2023-03-16T20:52:30.099Z,1.00
2023-03-16T20:54:58.049Z,1.00
2023-03-16T20:57:27.595Z,1.00
2023-03-16T20:59:55.454Z,1.00
2023-03-16T21:02:35.028Z,1.00
2023-03-16T21:05:04.502Z,1.00
2023-03-16T21:07:31.873Z,1.00
2023-03-16T21:09:59.013Z,1.00
2023-03-16T21:12:34.118Z,1.00
2023-03-16T21:15:04.528Z,1.00
2023-03-16T21:17:34.450Z,1.00
2023-03-16T21:20:01.412Z,1.00
2023-03-16T21:22:31.294Z,1.00
2023-03-16T21:24:58.529Z,1.00
2023-03-16T21:27:31.895Z,1.00
2023-03-16T21:30:05.020Z,1.00
2023-03-16T21:32:33.572Z,1.00
2023-03-16T21:35:00.452Z,1.00
2023-03-16T21:37:27.971Z,1.00
2023-03-16T21:39:54.852Z,1.00
2023-03-16T21:42:22.189Z,1.00
2023-03-16T21:44:49.082Z,1.00
2023-03-16T21:47:24.465Z,1.00
2023-03-16T21:49:53.750Z,1.00
2023-03-16T21:52:26.684Z,1.00
2023-03-16T21:54:54.410Z,1.00
2023-03-16T21:57:21.680Z,1.00
2023-03-16T21:59:50.240Z,1.00
2023-03-16T22:02:19.886Z,1.00
2023-03-16T22:04:47.235Z,1.00
2023-03-16T22:07:14.436Z,1.00
2023-03-16T22:09:41.770Z,1.00
2023-03-16T22:12:11.457Z,1.00
2023-03-16T22:14:38.269Z,1.00
2023-03-16T22:17:07.070Z,1.00
2023-03-16T22:19:34.120Z,1.00
2023-03-16T22:22:01.004Z,1.00
2023-03-16T22:24:30.550Z,1.00
2023-03-16T22:26:58.051Z,1.00
2023-03-16T22:29:30.120Z,1.00
2023-03-16T22:32:08.451Z,1.00
2023-03-16T22:34:45.838Z,1.00
2023-03-16T22:37:18.102Z,1.00
2023-03-16T22:39:44.945Z,1.00
2023-03-16T22:42:26.974Z,1.00
2023-03-16T22:44:55.427Z,1.00
2023-03-16T22:47:28.004Z,1.00
2023-03-16T22:49:55.015Z,1.00
2023-03-16T22:52:25.840Z,1.00
2023-03-16T22:54:53.166Z,1.00
2023-03-16T22:57:20.114Z,1.00
2023-03-16T22:59:48.169Z,1.00
2023-03-16T23:02:16.048Z,1.00
2023-03-16T23:04:42.967Z,1.00
2023-03-16T23:07:14.846Z,1.00
2023-03-16T23:09:42.004Z,1.00
2023-03-16T23:12:19.074Z,1.00
2023-03-16T23:14:46.008Z,1.00
2023-03-16T23:17:17.748Z,1.00
2023-03-16T23:19:45.661Z,1.00
2023-03-16T23:22:12.632Z,1.00
2023-03-16T23:24:39.402Z,1.00
2023-03-16T23:27:17.222Z,1.00
2023-03-16T23:29:44.210Z,1.00
2023-03-16T23:32:11.706Z,1.00
2023-03-16T23:34:38.537Z,1.00
2023-03-16T23:37:05.349Z,1.00
2023-03-16T23:39:32.260Z,1.00
2023-03-16T23:41:59.077Z,1.00
2023-03-16T23:44:28.459Z,1.00
2023-03-16T23:46:55.382Z,1.00
2023-03-16T23:49:26.209Z,1.00
2023-03-16T23:51:55.640Z,1.00
2023-03-16T23:54:28.512Z,1.00
2023-03-16T23:56:55.744Z,1.00
2023-03-16T23:59:23.512Z,1.00
